Time;durP1;ratioP1;P1;durP2;ratioP2;P2;SDS_P1;SDS_P2;PMS_P1;PMS_P2;Temp;Humidity;BMP_temperature;BMP_pressure;BME280_temperature;BME280_humidity;BME280_pressure;Samples;Min_cycle;Max_cycle;Signal;HPM_P1;HPM_P2
2021/03/17 00:00:26;;;;;;;4.10;2.50;;;;;;;;;;5064323;28;20063;-62
2021/03/17 00:03:12;;;;;;;3.75;2.38;;;;;;;;;;5062558;28;20177;-61
2021/03/17 00:05:57;;;;;;;4.70;2.40;;;;;;;;;;5060618;28;20234;-61
2021/03/17 00:08:43;;;;;;;3.47;2.35;;;;;;;;;;5059849;28;20055;-61
2021/03/17 00:11:28;;;;;;;4.10;2.10;;;;;;;;;;5062469;28;20503;-61
2021/03/17 00:14:17;;;;;;;8.65;2.33;;;;;;;;;;5064026;28;20059;-61
2021/03/17 00:17:03;;;;;;;5.05;2.58;;;;;;;;;;5063258;28;20423;-61
2021/03/17 00:19:49;;;;;;;5.22;2.45;;;;;;;;;;5062711;28;20499;-62
2021/03/17 00:22:34;;;;;;;6.28;2.97;;;;;;;;;;5062030;28;20174;-61
2021/03/17 00:25:20;;;;;;;4.55;2.20;;;;;;;;;;5064142;28;20083;-62
2021/03/17 00:28:05;;;;;;;5.57;2.80;;;;;;;;;;5062732;28;20056;-61
2021/03/17 00:30:49;;;;;;;6.20;2.50;;;;;;;;;;5061247;28;20056;-62
2021/03/17 00:33:35;;;;;;;6.43;2.63;;;;;;;;;;5063151;28;20523;-61
2021/03/17 00:36:20;;;;;;;4.53;2.42;;;;;;;;;;5063352;28;20047;-62
2021/03/17 00:39:05;;;;;;;5.35;2.90;;;;;;;;;;5062209;28;20059;-61
2021/03/17 00:41:50;;;;;;;8.52;3.97;;;;;;;;;;5062746;28;20055;-61
2021/03/17 00:44:40;;;;;;;7.25;3.10;;;;;;;;;;5059719;28;20060;-61
2021/03/17 00:47:27;;;;;;;9.02;2.60;;;;;;;;;;5063589;28;20179;-61
2021/03/17 00:49:54;;;;;;;7.10;2.65;;;;;;;;;;5057743;28;20416;-62
2021/03/17 00:52:22;;;;;;;5.90;2.92;;;;;;;;;;5061131;28;20052;-61
2021/03/17 00:55:07;;;;;;;4.47;2.55;;;;;;;;;;5060725;28;20581;-62
2021/03/17 00:57:53;;;;;;;7.75;2.50;;;;;;;;;;5060831;28;20133;-61
2021/03/17 01:00:20;;;;;;;6.32;2.90;;;;;;;;;;5056482;28;20068;-61
2021/03/17 01:02:47;;;;;;;7.47;3.20;;;;;;;;;;5062361;28;20063;-61
2021/03/17 01:05:14;;;;;;;4.53;2.90;;;;;;;;;;5059687;28;20071;-61
2021/03/17 01:07:40;;;;;;;8.30;2.70;;;;;;;;;;5060436;28;20389;-61
2021/03/17 01:10:12;;;;;;;4.60;3.20;;;;;;;;;;5061208;28;20053;-61
2021/03/17 01:12:38;;;;;;;7.18;2.92;;;;;;;;;;5062292;28;20676;-61
2021/03/17 01:15:13;;;;;;;5.03;3.05;;;;;;;;;;5061933;28;20045;-61
2021/03/17 01:17:40;;;;;;;6.03;2.65;;;;;;;;;;5060731;28;20045;-61
2021/03/17 01:20:08;;;;;;;3.90;2.80;;;;;;;;;;5061905;28;20523;-61
2021/03/17 01:22:34;;;;;;;4.57;2.65;;;;;;;;;;5060889;28;20049;-61
2021/03/17 01:25:02;;;;;;;4.00;2.40;;;;;;;;;;5060338;28;20139;-61
2021/03/17 01:27:28;;;;;;;9.75;2.35;;;;;;;;;;5059466;28;20057;-61
2021/03/17 01:29:56;;;;;;;10.15;2.88;;;;;;;;;;5059895;28;20465;-63
2021/03/17 01:32:22;;;;;;;9.05;2.40;;;;;;;;;;5062296;28;20045;-63
2021/03/17 01:34:48;;;;;;;5.88;3.28;;;;;;;;;;5060505;28;20048;-63
2021/03/17 01:37:14;;;;;;;8.18;3.25;;;;;;;;;;5061549;28;20033;-64
2021/03/17 01:39:40;;;;;;;11.32;3.10;;;;;;;;;;5059312;28;20071;-63
2021/03/17 01:42:08;;;;;;;5.30;3.00;;;;;;;;;;5061055;28;20032;-63
2021/03/17 01:44:37;;;;;;;8.05;3.60;;;;;;;;;;5057413;28;20041;-63
2021/03/17 01:47:04;;;;;;;10.43;3.00;;;;;;;;;;5062834;28;20043;-63
2021/03/17 01:49:30;;;;;;;5.05;3.47;;;;;;;;;;5061953;28;20067;-64
2021/03/17 01:51:57;;;;;;;8.10;3.28;;;;;;;;;;5060058;28;20045;-64
2021/03/17 01:54:23;;;;;;;6.32;3.00;;;;;;;;;;5064428;28;20051;-63
2021/03/17 01:56:49;;;;;;;7.72;3.35;;;;;;;;;;5063931;28;20048;-63
2021/03/17 01:59:16;;;;;;;8.40;2.93;;;;;;;;;;5063880;28;20047;-64
2021/03/17 02:01:42;;;;;;;9.55;3.15;;;;;;;;;;5063255;28;20887;-64
2021/03/17 02:04:09;;;;;;;4.33;2.53;;;;;;;;;;5064839;28;20064;-63
2021/03/17 02:06:35;;;;;;;4.77;2.47;;;;;;;;;;5062091;28;20056;-63
2021/03/17 02:09:02;;;;;;;5.38;3.08;;;;;;;;;;5064154;28;20349;-63
2021/03/17 02:11:28;;;;;;;5.78;3.35;;;;;;;;;;5063534;28;20136;-63
2021/03/17 02:14:14;;;;;;;9.23;3.70;;;;;;;;;;5064536;28;20083;-63
2021/03/17 02:16:53;;;;;;;15.23;3.00;;;;;;;;;;5064460;28;20044;-63
2021/03/17 02:19:38;;;;;;;8.13;3.20;;;;;;;;;;5064610;28;20040;-63
2021/03/17 02:22:30;;;;;;;6.63;3.00;;;;;;;;;;5062986;28;20040;-63
2021/03/17 02:25:19;;;;;;;6.85;3.05;;;;;;;;;;5061969;28;20049;-63
2021/03/17 02:27:46;;;;;;;7.25;2.70;;;;;;;;;;5061550;28;20060;-63
2021/03/17 02:30:32;;;;;;;12.90;4.10;;;;;;;;;;5064143;28;20187;-63
2021/03/17 02:33:06;;;;;;;9.75;5.07;;;;;;;;;;5064358;28;20044;-64
2021/03/17 02:35:34;;;;;;;8.10;3.30;;;;;;;;;;5062142;28;20040;-63
2021/03/17 02:38:01;;;;;;;8.48;3.22;;;;;;;;;;5060313;28;20037;-63
2021/03/17 02:40:27;;;;;;;;;;;;;;;;;;5062187;28;20138;-63
2021/03/17 02:43:00;;;;;;;4.75;2.78;;;;;;;;;;5061395;28;20532;-64
2021/03/17 02:45:47;;;;;;;6.10;3.38;;;;;;;;;;5063441;28;20053;-63
2021/03/17 02:48:21;;;;;;;7.38;3.80;;;;;;;;;;5061113;28;20072;-63
2021/03/17 02:50:48;;;;;;;6.75;3.85;;;;;;;;;;5065221;28;20124;-63
2021/03/17 02:53:17;;;;;;;7.88;4.13;;;;;;;;;;5065001;28;20044;-63
2021/03/17 02:55:56;;;;;;;6.88;3.88;;;;;;;;;;5065406;28;20049;-63
2021/03/17 02:58:24;;;;;;;6.53;3.42;;;;;;;;;;5063101;28;20115;-63
2021/03/17 03:00:50;;;;;;;7.40;3.33;;;;;;;;;;5063971;28;20575;-63
2021/03/17 03:03:18;;;;;;;8.75;3.22;;;;;;;;;;5063745;28;20794;-64
2021/03/17 03:05:45;;;;;;;;;;;;;;;;;;5063447;28;20044;-63
2021/03/17 03:08:11;;;;;;;9.50;3.70;;;;;;;;;;5061845;28;19920;-63
2021/03/17 03:10:39;;;;;;;9.43;3.45;;;;;;;;;;5061552;28;20452;-63
2021/03/17 03:13:05;;;;;;;5.78;3.30;;;;;;;;;;5062200;28;20044;-63
2021/03/17 03:15:32;;;;;;;13.25;3.50;;;;;;;;;;5060919;28;20041;-63
2021/03/17 03:18:00;;;;;;;11.90;3.33;;;;;;;;;;5064359;28;20689;-63
2021/03/17 03:20:29;;;;;;;8.93;3.88;;;;;;;;;;5062667;28;20291;-63
2021/03/17 03:22:55;;;;;;;7.55;3.28;;;;;;;;;;5061826;28;20135;-64
2021/03/17 03:25:21;;;;;;;7.72;4.10;;;;;;;;;;5061112;28;20047;-63
2021/03/17 03:27:49;;;;;;;6.60;3.30;;;;;;;;;;5063591;28;20496;-63
2021/03/17 03:30:22;;;;;;;9.57;3.60;;;;;;;;;;5063742;28;20123;-63
2021/03/17 03:32:49;;;;;;;8.90;3.90;;;;;;;;;;5063804;28;20048;-63
2021/03/17 03:35:16;;;;;;;7.18;3.50;;;;;;;;;;5062119;28;20051;-63
2021/03/17 03:37:42;;;;;;;7.22;3.63;;;;;;;;;;5065187;28;20052;-63
2021/03/17 03:40:10;;;;;;;11.23;3.70;;;;;;;;;;5061605;28;20045;-63
2021/03/17 03:42:36;;;;;;;6.68;3.38;;;;;;;;;;5062077;28;20055;-63
2021/03/17 03:45:04;;;;;;;8.57;3.45;;;;;;;;;;5060540;28;20045;-63
2021/03/17 03:47:32;;;;;;;7.45;3.65;;;;;;;;;;5062495;28;20047;-63
2021/03/17 03:49:59;;;;;;;4.55;2.85;;;;;;;;;;5059952;28;20043;-63
2021/03/17 03:52:48;;;;;;;7.37;3.40;;;;;;;;;;5061920;28;20040;-63
2021/03/17 03:55:27;;;;;;;9.25;4.10;;;;;;;;;;5062364;28;20287;-63
2021/03/17 03:57:55;;;;;;;10.15;3.85;;;;;;;;;;5061745;28;20048;-63
2021/03/17 04:00:23;;;;;;;7.80;4.85;;;;;;;;;;5061815;28;20097;-63
2021/03/17 04:02:50;;;;;;;8.75;3.97;;;;;;;;;;5061964;28;20037;-63
2021/03/17 04:05:18;;;;;;;10.25;4.05;;;;;;;;;;5061418;28;20037;-63
2021/03/17 04:07:46;;;;;;;9.55;4.72;;;;;;;;;;5062431;28;20060;-63
2021/03/17 04:10:11;;;;;;;;;;;;;;;;;;5060374;28;20044;-63
2021/03/17 04:12:38;;;;;;;7.47;3.38;;;;;;;;;;5063944;28;19985;-63
2021/03/17 04:15:06;;;;;;;7.35;4.03;;;;;;;;;;5064534;28;20036;-63
2021/03/17 04:17:51;;;;;;;7.43;3.80;;;;;;;;;;5060901;28;20045;-63
2021/03/17 04:20:21;;;;;;;6.05;3.65;;;;;;;;;;5063957;28;20072;-63
2021/03/17 04:22:48;;;;;;;7.18;3.67;;;;;;;;;;5063009;28;20112;-63
2021/03/17 04:25:15;;;;;;;5.53;2.97;;;;;;;;;;5063944;28;20036;-63
2021/03/17 04:27:46;;;;;;;8.55;3.78;;;;;;;;;;5063230;28;20060;-63
2021/03/17 04:30:14;;;;;;;9.90;3.60;;;;;;;;;;5061613;28;20428;-63
2021/03/17 04:32:42;;;;;;;4.60;3.60;;;;;;;;;;5062831;28;20052;-63
2021/03/17 04:35:09;;;;;;;6.25;3.83;;;;;;;;;;5062689;28;20048;-63
2021/03/17 04:37:37;;;;;;;8.10;4.13;;;;;;;;;;5060353;28;20156;-63
2021/03/17 04:40:03;;;;;;;6.97;4.10;;;;;;;;;;5062983;28;20546;-63
2021/03/17 04:42:30;;;;;;;6.50;3.67;;;;;;;;;;5060876;28;20123;-63
2021/03/17 04:44:56;;;;;;;11.13;4.38;;;;;;;;;;5061276;28;20048;-63
2021/03/17 04:47:23;;;;;;;8.00;2.70;;;;;;;;;;5061504;28;20044;-63
2021/03/17 04:49:50;;;;;;;6.97;3.47;;;;;;;;;;5061438;28;20051;-63
2021/03/17 04:52:17;;;;;;;6.57;3.58;;;;;;;;;;5057370;28;20056;-63
2021/03/17 04:54:44;;;;;;;3.80;2.42;;;;;;;;;;5062990;28;20052;-63
2021/03/17 04:57:14;;;;;;;10.82;3.40;;;;;;;;;;5061407;28;20049;-63
2021/03/17 04:59:41;;;;;;;5.47;3.35;;;;;;;;;;5062476;28;20492;-63
2021/03/17 05:02:10;;;;;;;9.27;3.35;;;;;;;;;;5059667;28;20405;-63
2021/03/17 05:04:39;;;;;;;7.88;3.75;;;;;;;;;;5057896;28;20044;-63
2021/03/17 05:07:05;;;;;;;6.53;3.47;;;;;;;;;;5060313;28;20087;-63
2021/03/17 05:09:32;;;;;;;4.88;2.90;;;;;;;;;;5058645;28;20479;-63
2021/03/17 05:12:00;;;;;;;8.50;3.38;;;;;;;;;;5058830;28;20044;-63
2021/03/17 05:14:27;;;;;;;7.40;3.70;;;;;;;;;;5060999;28;20048;-63
2021/03/17 05:16:53;;;;;;;10.73;4.00;;;;;;;;;;5061513;28;20052;-63
2021/03/17 05:19:20;;;;;;;6.57;3.70;;;;;;;;;;5064372;28;20112;-63
2021/03/17 05:21:47;;;;;;;8.48;3.70;;;;;;;;;;5060622;28;20353;-63
2021/03/17 05:24:14;;;;;;;9.23;3.60;;;;;;;;;;5060239;28;20122;-63
2021/03/17 05:26:40;;;;;;;9.57;3.63;;;;;;;;;;5059554;28;20580;-63
2021/03/17 05:29:07;;;;;;;6.60;3.70;;;;;;;;;;5061566;28;20443;-63
2021/03/17 05:31:33;;;;;;;7.07;3.88;;;;;;;;;;5066573;28;20041;-63
2021/03/17 05:34:00;;;;;;;7.22;3.22;;;;;;;;;;5064917;28;20033;-63
2021/03/17 05:36:27;;;;;;;7.32;3.72;;;;;;;;;;5066393;28;20036;-63
2021/03/17 05:38:53;;;;;;;10.43;3.53;;;;;;;;;;5066584;28;20090;-63
2021/03/17 05:41:20;;;;;;;6.53;3.33;;;;;;;;;;5064984;28;20036;-63
2021/03/17 05:43:47;;;;;;;;;;;;;;;;;;5065005;28;20295;-63
2021/03/17 05:46:13;;;;;;;7.63;3.30;;;;;;;;;;5062806;28;20536;-63
2021/03/17 05:48:41;;;;;;;9.43;3.05;;;;;;;;;;5063993;28;20041;-63
2021/03/17 05:51:07;;;;;;;8.10;3.45;;;;;;;;;;5063124;28;20135;-63
2021/03/17 05:53:34;;;;;;;4.68;3.17;;;;;;;;;;5064505;28;20048;-63
2021/03/17 05:56:00;;;;;;;7.35;2.78;;;;;;;;;;5064778;28;20048;-63
2021/03/17 05:58:28;;;;;;;3.55;2.53;;;;;;;;;;5067898;28;20049;-63
2021/03/17 06:00:54;;;;;;;8.20;3.40;;;;;;;;;;5067464;28;20128;-63
2021/03/17 06:03:21;;;;;;;6.82;2.67;;;;;;;;;;5065311;28;20067;-63
2021/03/17 06:05:47;;;;;;;5.95;2.72;;;;;;;;;;5062423;28;20040;-63
2021/03/17 06:08:16;;;;;;;9.07;3.20;;;;;;;;;;5068045;28;20814;-63
2021/03/17 06:10:43;;;;;;;7.80;3.33;;;;;;;;;;5064622;28;20131;-63
2021/03/17 06:13:13;;;;;;;6.93;2.83;;;;;;;;;;5066192;28;20569;-63
2021/03/17 06:15:41;;;;;;;7.63;3.25;;;;;;;;;;5064201;28;20501;-64
2021/03/17 06:18:39;;;;;;;5.88;3.85;;;;;;;;;;5063112;28;20057;-63
2021/03/17 06:21:06;;;;;;;8.45;3.15;;;;;;;;;;5061811;28;20037;-63
2021/03/17 06:23:32;;;;;;;5.40;2.40;;;;;;;;;;5064537;28;20127;-63
2021/03/17 06:25:59;;;;;;;9.90;3.22;;;;;;;;;;5064056;28;20048;-63
2021/03/17 06:28:27;;;;;;;7.25;2.90;;;;;;;;;;5063454;28;20045;-63
2021/03/17 06:30:54;;;;;;;7.03;3.67;;;;;;;;;;5063065;28;20040;-63
2021/03/17 06:33:22;;;;;;;10.85;3.83;;;;;;;;;;5064506;28;20102;-63
2021/03/17 06:35:48;;;;;;;7.82;3.70;;;;;;;;;;5064542;28;20049;-63
2021/03/17 06:38:23;;;;;;;7.43;3.72;;;;;;;;;;5065103;28;20060;-63
2021/03/17 06:40:56;;;;;;;9.35;3.78;;;;;;;;;;5062354;28;20037;-63
2021/03/17 06:43:34;;;;;;;6.45;3.40;;;;;;;;;;5062767;28;20056;-63
2021/03/17 06:46:04;;;;;;;5.18;3.42;;;;;;;;;;5062938;28;20568;-64
2021/03/17 06:48:50;;;;;;;4.63;2.97;;;;;;;;;;5064141;28;20048;-63
2021/03/17 06:51:17;;;;;;;7.20;3.05;;;;;;;;;;5063687;28;20075;-63
2021/03/17 06:53:44;;;;;;;6.10;2.70;;;;;;;;;;5063032;28;20056;-63
2021/03/17 06:56:11;;;;;;;9.88;1.95;;;;;;;;;;5060498;28;20041;-63
2021/03/17 06:58:42;;;;;;;4.28;2.60;;;;;;;;;;5063382;28;20124;-61
2021/03/17 07:01:27;;;;;;;7.35;1.67;;;;;;;;;;5062189;28;20037;-61
2021/03/17 07:03:55;;;;;;;3.88;1.73;;;;;;;;;;5063163;28;20113;-61
2021/03/17 07:06:22;;;;;;;2.75;1.60;;;;;;;;;;5060869;28;20040;-61
2021/03/17 07:08:49;;;;;;;3.25;1.13;;;;;;;;;;5062974;28;20051;-61
2021/03/17 07:11:26;;;;;;;2.10;0.90;;;;;;;;;;5061570;28;20044;-61
2021/03/17 07:13:58;;;;;;;2.58;1.25;;;;;;;;;;5061772;28;20067;-61
2021/03/17 07:16:28;;;;;;;3.63;0.95;;;;;;;;;;5061055;28;20033;-61
2021/03/17 07:19:33;;;;;;;3.15;0.93;;;;;;;;;;5060158;28;20037;-61
2021/03/17 07:22:04;;;;;;;2.03;0.90;;;;;;;;;;5064596;28;20063;-61
2021/03/17 07:24:30;;;;;;;4.47;1.15;;;;;;;;;;5063336;28;20056;-61
2021/03/17 07:27:10;;;;;;;1.73;0.90;;;;;;;;;;5061098;28;20052;-61
2021/03/17 07:29:37;;;;;;;3.00;0.98;;;;;;;;;;5059480;28;20098;-61
2021/03/17 07:32:03;;;;;;;5.25;1.30;;;;;;;;;;5064994;28;20041;-61
2021/03/17 07:34:30;;;;;;;4.03;1.00;;;;;;;;;;5064316;28;20160;-61
2021/03/17 07:36:58;;;;;;;0.70;0.70;;;;;;;;;;5060931;28;20048;-61
2021/03/17 07:39:24;;;;;;;;;;;;;;;;;;5061393;28;20587;-61
2021/03/17 07:41:52;;;;;;;5.03;1.27;;;;;;;;;;5061633;28;20014;-61
2021/03/17 07:44:19;;;;;;;2.10;0.90;;;;;;;;;;5060623;28;20102;-61
2021/03/17 07:46:47;;;;;;;3.20;0.90;;;;;;;;;;5064701;28;20056;-61
2021/03/17 07:49:13;;;;;;;;;;;;;;;;;;5063902;28;20040;-61
2021/03/17 07:51:45;;;;;;;4.70;1.08;;;;;;;;;;5064404;28;19947;-61
2021/03/17 07:54:14;;;;;;;2.90;0.90;;;;;;;;;;5061366;28;20507;-61
2021/03/17 07:56:41;;;;;;;0.98;0.77;;;;;;;;;;5061757;28;20115;-61
2021/03/17 07:59:09;;;;;;;3.50;1.30;;;;;;;;;;5060720;28;20037;-61
2021/03/17 08:01:35;;;;;;;1.93;1.07;;;;;;;;;;5060658;28;20087;-61
2021/03/17 08:04:02;;;;;;;3.60;0.60;;;;;;;;;;5061982;28;20452;-62
2021/03/17 08:06:30;;;;;;;10.05;1.23;;;;;;;;;;5061872;28;20052;-61
2021/03/17 08:08:57;;;;;;;7.00;1.50;;;;;;;;;;5059683;28;20517;-61
2021/03/17 08:11:23;;;;;;;5.20;1.00;;;;;;;;;;5063841;28;20052;-61
2021/03/17 08:13:51;;;;;;;2.70;0.90;;;;;;;;;;5061865;28;20045;-61
2021/03/17 08:16:21;;;;;;;1.98;0.80;;;;;;;;;;5062344;28;20048;-61
2021/03/17 08:18:51;;;;;;;2.38;1.08;;;;;;;;;;5061827;28;20133;-61
2021/03/17 08:21:38;;;;;;;1.90;0.93;;;;;;;;;;5063174;28;20044;-61
2021/03/17 08:24:04;;;;;;;5.05;1.13;;;;;;;;;;5064032;28;20047;-61
2021/03/17 08:26:30;;;;;;;2.35;1.00;;;;;;;;;;5062887;28;20059;-61
2021/03/17 08:28:57;;;;;;;1.45;0.90;;;;;;;;;;5064169;28;20119;-61
2021/03/17 08:31:36;;;;;;;2.83;0.93;;;;;;;;;;5062779;28;20139;-61
2021/03/17 08:34:33;;;;;;;5.95;1.13;;;;;;;;;;5061864;28;20040;-61
2021/03/17 08:37:00;;;;;;;4.85;1.83;;;;;;;;;;5057650;28;20534;-61
2021/03/17 08:39:27;;;;;;;4.10;1.38;;;;;;;;;;5063981;28;20067;-61
2021/03/17 08:41:54;;;;;;;3.67;1.57;;;;;;;;;;5061385;28;20075;-61
2021/03/17 08:44:21;;;;;;;6.97;1.65;;;;;;;;;;5064619;28;20125;-61
2021/03/17 08:46:48;;;;;;;2.95;1.05;;;;;;;;;;5063026;28;20072;-61
2021/03/17 08:49:32;;;;;;;2.05;0.70;;;;;;;;;;5060752;28;20484;-61
2021/03/17 08:52:09;;;;;;;2.38;0.90;;;;;;;;;;5060390;28;20062;-61
2021/03/17 08:54:41;;;;;;;1.80;1.10;;;;;;;;;;5061967;28;20052;-61
2021/03/17 08:57:14;;;;;;;2.90;0.98;;;;;;;;;;5062219;28;20052;-61
2021/03/17 08:59:45;;;;;;;1.35;1.00;;;;;;;;;;5061697;28;20053;-61
2021/03/17 09:02:26;;;;;;;2.25;1.00;;;;;;;;;;5062584;28;20102;-61
2021/03/17 09:04:59;;;;;;;2.35;0.75;;;;;;;;;;5060562;28;20053;-62
2021/03/17 09:07:29;;;;;;;2.75;1.05;;;;;;;;;;5063251;28;20051;-61
2021/03/17 09:10:12;;;;;;;2.88;0.82;;;;;;;;;;5063824;28;20048;-61
2021/03/17 09:12:39;;;;;;;1.98;0.88;;;;;;;;;;5058181;28;20393;-61
2021/03/17 09:15:14;;;;;;;2.50;0.90;;;;;;;;;;5060000;28;20136;-61
2021/03/17 09:17:45;;;;;;;3.13;0.77;;;;;;;;;;5061445;28;20057;-62
2021/03/17 09:20:14;;;;;;;2.20;0.77;;;;;;;;;;5062200;28;20041;-61
2021/03/17 09:22:45;;;;;;;2.33;0.90;;;;;;;;;;5060207;28;20043;-61
2021/03/17 09:25:17;;;;;;;2.88;0.77;;;;;;;;;;5062118;28;20037;-61
2021/03/17 09:27:47;;;;;;;3.33;1.00;;;;;;;;;;5060191;28;20431;-62
2021/03/17 09:30:14;;;;;;;1.55;0.73;;;;;;;;;;5061163;28;20060;-61
2021/03/17 09:32:40;;;;;;;2.30;0.70;;;;;;;;;;5062128;28;20049;-61
2021/03/17 09:35:07;;;;;;;2.58;0.70;;;;;;;;;;5059965;28;20526;-61
2021/03/17 09:37:34;;;;;;;1.98;0.52;;;;;;;;;;5057709;28;20045;-61
2021/03/17 09:40:01;;;;;;;1.40;0.70;;;;;;;;;;5061017;28;20037;-61
2021/03/17 09:42:27;;;;;;;3.63;0.87;;;;;;;;;;5059583;28;20044;-61
2021/03/17 09:44:55;;;;;;;;;;;;;;;;;;5059694;28;20353;-61
2021/03/17 09:47:25;;;;;;;5.78;0.80;;;;;;;;;;5060967;28;20383;-61
2021/03/17 09:49:51;;;;;;;3.35;0.90;;;;;;;;;;5061859;28;20040;-61
2021/03/17 09:52:17;;;;;;;1.73;0.70;;;;;;;;;;5061765;28;20048;-61
2021/03/17 09:54:44;;;;;;;2.47;0.85;;;;;;;;;;5061790;28;20036;-61
2021/03/17 09:57:11;;;;;;;1.35;0.60;;;;;;;;;;5061899;28;20107;-61
2021/03/17 09:59:40;;;;;;;0.93;0.52;;;;;;;;;;5060200;28;20124;-61
2021/03/17 10:02:09;;;;;;;6.13;0.73;;;;;;;;;;5063510;28;20134;-61
2021/03/17 10:04:42;;;;;;;0.93;0.50;;;;;;;;;;5060766;28;20053;-61
2021/03/17 10:07:16;;;;;;;1.92;0.80;;;;;;;;;;5063612;28;20064;-61
2021/03/17 10:09:43;;;;;;;1.90;0.57;;;;;;;;;;5060378;28;20052;-61
2021/03/17 10:12:11;;;;;;;2.22;0.60;;;;;;;;;;5060108;28;20052;-61
2021/03/17 10:14:45;;;;;;;1.17;0.60;;;;;;;;;;5059004;28;20095;-61
2021/03/17 10:17:13;;;;;;;2.67;0.52;;;;;;;;;;5062466;28;20201;-61
2021/03/17 10:19:40;;;;;;;2.85;0.63;;;;;;;;;;5063357;28;20079;-61
2021/03/17 10:22:06;;;;;;;4.97;0.80;;;;;;;;;;5063183;28;20045;-61
2021/03/17 10:24:36;;;;;;;0.97;0.47;;;;;;;;;;5065811;28;20068;-61
2021/03/17 10:27:06;;;;;;;1.73;0.80;;;;;;;;;;5063043;28;20065;-62
2021/03/17 10:29:33;;;;;;;0.80;0.40;;;;;;;;;;5060913;28;20048;-61
2021/03/17 10:32:02;;;;;;;1.13;0.50;;;;;;;;;;5066480;28;20570;-61
2021/03/17 10:34:29;;;;;;;4.78;0.68;;;;;;;;;;5065395;28;20065;-61
2021/03/17 10:36:56;;;;;;;2.50;0.68;;;;;;;;;;5062640;28;20389;-61
2021/03/17 10:39:26;;;;;;;1.98;0.57;;;;;;;;;;5064876;28;20098;-61
2021/03/17 10:41:53;;;;;;;0.80;0.43;;;;;;;;;;5062586;28;20055;-62
2021/03/17 10:44:21;;;;;;;4.28;0.80;;;;;;;;;;5061144;28;20045;-61
2021/03/17 10:46:56;;;;;;;3.42;0.70;;;;;;;;;;5065671;28;20084;-61
2021/03/17 10:49:22;;;;;;;1.70;0.68;;;;;;;;;;5062517;28;20037;-61
2021/03/17 10:51:53;;;;;;;1.65;0.60;;;;;;;;;;5063513;28;20271;-61
2021/03/17 10:54:26;;;;;;;2.67;0.75;;;;;;;;;;5064145;28;20048;-61
2021/03/17 10:57:07;;;;;;;0.50;0.50;;;;;;;;;;5064566;28;20048;-62
2021/03/17 10:59:35;;;;;;;0.80;0.40;;;;;;;;;;5061623;28;20544;-61
2021/03/17 11:02:14;;;;;;;3.72;0.70;;;;;;;;;;5062030;28;20454;-61
2021/03/17 11:04:59;;;;;;;2.95;0.60;;;;;;;;;;5059692;28;20048;-61
2021/03/17 11:07:26;;;;;;;1.80;0.85;;;;;;;;;;5063517;28;20048;-61
2021/03/17 11:09:52;;;;;;;1.85;0.70;;;;;;;;;;5065561;28;20051;-61
2021/03/17 11:12:19;;;;;;;3.88;0.77;;;;;;;;;;5063059;28;20071;-62
2021/03/17 11:14:45;;;;;;;3.10;0.85;;;;;;;;;;5063985;28;20111;-61
2021/03/17 11:17:11;;;;;;;1.38;0.70;;;;;;;;;;5063818;28;20485;-61
2021/03/17 11:19:37;;;;;;;2.13;0.95;;;;;;;;;;5062289;28;20090;-61
2021/03/17 11:22:04;;;;;;;2.08;0.57;;;;;;;;;;5065522;28;20414;-62
2021/03/17 11:24:30;;;;;;;2.42;0.70;;;;;;;;;;5065842;28;20041;-61
2021/03/17 11:26:57;;;;;;;1.90;0.82;;;;;;;;;;5062891;28;20067;-62
2021/03/17 11:29:25;;;;;;;2.05;0.88;;;;;;;;;;5062147;28;20077;-62
2021/03/17 11:31:52;;;;;;;1.75;0.85;;;;;;;;;;5063988;28;20103;-62
2021/03/17 11:34:19;;;;;;;1.20;0.65;;;;;;;;;;5062725;28;20045;-61
2021/03/17 11:36:47;;;;;;;6.88;1.10;;;;;;;;;;5064098;28;20143;-62
2021/03/17 11:39:15;;;;;;;2.97;1.00;;;;;;;;;;5063383;28;20121;-62
2021/03/17 11:41:42;;;;;;;2.65;0.80;;;;;;;;;;5061346;28;20103;-62
2021/03/17 11:44:12;;;;;;;3.50;0.93;;;;;;;;;;5063991;28;21114;-61
2021/03/17 11:46:39;;;;;;;1.88;0.77;;;;;;;;;;5061332;28;20071;-61
2021/03/17 11:49:05;;;;;;;1.25;0.80;;;;;;;;;;5061273;28;20119;-62
2021/03/17 11:51:33;;;;;;;3.40;0.75;;;;;;;;;;5061115;28;20048;-61
2021/03/17 11:54:00;;;;;;;3.15;0.95;;;;;;;;;;5061966;28;20048;-62
2021/03/17 11:56:26;;;;;;;1.75;0.60;;;;;;;;;;5062769;28;20554;-62
2021/03/17 11:58:53;;;;;;;1.65;0.90;;;;;;;;;;5063206;28;20051;-61
2021/03/17 12:01:19;;;;;;;4.03;0.70;;;;;;;;;;5062559;28;20041;-62
2021/03/17 12:03:48;;;;;;;2.05;1.00;;;;;;;;;;5062714;28;20036;-62
2021/03/17 12:06:15;;;;;;;1.50;0.82;;;;;;;;;;5063658;28;20193;-62
2021/03/17 12:08:42;;;;;;;0.77;0.52;;;;;;;;;;5061890;28;20049;-62
2021/03/17 12:11:18;;;;;;;2.47;0.68;;;;;;;;;;5064555;28;20048;-62
2021/03/17 12:13:45;;;;;;;1.40;0.90;;;;;;;;;;5061438;28;20399;-61
2021/03/17 12:16:13;;;;;;;5.00;0.70;;;;;;;;;;5072114;28;20125;-62
2021/03/17 12:18:40;;;;;;;;;;;;;;;;;;5063963;28;20044;-62
2021/03/17 12:21:07;;;;;;;1.52;0.80;;;;;;;;;;5062532;28;19978;-62
2021/03/17 12:23:33;;;;;;;1.00;0.60;;;;;;;;;;5061970;28;20056;-62
2021/03/17 12:26:00;;;;;;;1.88;0.70;;;;;;;;;;5062616;28;20084;-62
2021/03/17 12:28:26;;;;;;;3.15;0.80;;;;;;;;;;5060285;28;20079;-62
2021/03/17 12:30:53;;;;;;;1.25;0.70;;;;;;;;;;5062111;28;20512;-62
2021/03/17 12:33:19;;;;;;;3.33;0.90;;;;;;;;;;5064494;28;20051;-62
2021/03/17 12:35:47;;;;;;;;;;;;;;;;;;5061059;28;20048;-61
2021/03/17 12:38:13;;;;;;;2.40;0.98;;;;;;;;;;5062259;28;20007;-62
2021/03/17 12:40:39;;;;;;;1.55;0.70;;;;;;;;;;5061233;28;20095;-62
2021/03/17 12:43:06;;;;;;;2.08;0.70;;;;;;;;;;5061679;28;20048;-62
2021/03/17 12:45:42;;;;;;;1.13;0.77;;;;;;;;;;5062991;28;20041;-62
2021/03/17 12:48:10;;;;;;;0.88;0.70;;;;;;;;;;5062368;28;20064;-62
2021/03/17 12:50:37;;;;;;;11.30;1.30;;;;;;;;;;5062788;28;20120;-62
2021/03/17 12:53:03;;;;;;;4.47;0.80;;;;;;;;;;5062139;28;20622;-62
2021/03/17 12:55:29;;;;;;;2.35;0.98;;;;;;;;;;5062217;28;20048;-62
2021/03/17 12:57:55;;;;;;;3.90;0.90;;;;;;;;;;5061469;28;20044;-62
2021/03/17 13:00:23;;;;;;;4.45;0.90;;;;;;;;;;5061844;28;20037;-62
2021/03/17 13:02:50;;;;;;;1.67;0.80;;;;;;;;;;5061078;28;20040;-62
2021/03/17 13:05:17;;;;;;;1.65;0.80;;;;;;;;;;5060613;28;20041;-62
2021/03/17 13:07:45;;;;;;;3.60;0.93;;;;;;;;;;5060903;28;20106;-62
2021/03/17 13:10:14;;;;;;;6.50;0.90;;;;;;;;;;5062555;28;20048;-62
2021/03/17 13:12:44;;;;;;;5.88;0.85;;;;;;;;;;5060161;28;20052;-62
2021/03/17 13:15:11;;;;;;;2.33;0.60;;;;;;;;;;5062671;28;20127;-62
2021/03/17 13:17:37;;;;;;;1.63;0.60;;;;;;;;;;5061257;28;20083;-62
2021/03/17 13:20:05;;;;;;;4.60;1.02;;;;;;;;;;5059306;28;20098;-62
2021/03/17 13:22:31;;;;;;;2.15;0.85;;;;;;;;;;5060067;28;20069;-62
2021/03/17 13:24:58;;;;;;;1.02;0.88;;;;;;;;;;5061907;28;20526;-62
2021/03/17 13:27:25;;;;;;;2.00;0.80;;;;;;;;;;5059408;28;20076;-62
2021/03/17 13:29:55;;;;;;;5.85;1.13;;;;;;;;;;5060979;28;20036;-62
2021/03/17 13:32:22;;;;;;;1.35;0.80;;;;;;;;;;5058867;28;20052;-62
2021/03/17 13:34:50;;;;;;;3.65;1.05;;;;;;;;;;5059612;28;20561;-62
2021/03/17 13:37:18;;;;;;;1.15;0.80;;;;;;;;;;5058575;28;20132;-62
2021/03/17 13:39:44;;;;;;;2.47;1.00;;;;;;;;;;5062769;28;20068;-62
2021/03/17 13:42:10;;;;;;;3.55;1.13;;;;;;;;;;5060370;28;20412;-62
2021/03/17 13:44:36;;;;;;;1.65;0.82;;;;;;;;;;5059911;28;20037;-62
2021/03/17 13:47:02;;;;;;;1.77;0.90;;;;;;;;;;5059381;28;20060;-62
2021/03/17 13:49:29;;;;;;;2.75;0.98;;;;;;;;;;5059650;28;20047;-62
2021/03/17 13:51:55;;;;;;;3.63;0.77;;;;;;;;;;5062928;28;20504;-62
2021/03/17 13:54:21;;;;;;;1.17;0.80;;;;;;;;;;5062920;28;20048;-62
2021/03/17 13:56:49;;;;;;;1.58;0.80;;;;;;;;;;5064888;28;20381;-62
2021/03/17 13:59:16;;;;;;;4.35;1.25;;;;;;;;;;5065479;28;20041;-62
2021/03/17 14:01:42;;;;;;;3.47;1.20;;;;;;;;;;5064740;28;20532;-62
2021/03/17 14:04:12;;;;;;;2.33;0.90;;;;;;;;;;5063888;28;20561;-62
2021/03/17 14:06:38;;;;;;;5.10;0.93;;;;;;;;;;5064738;28;20041;-62
2021/03/17 14:09:05;;;;;;;3.30;1.23;;;;;;;;;;5063473;28;20044;-62
2021/03/17 14:11:31;;;;;;;5.43;1.05;;;;;;;;;;5064163;28;20045;-62
2021/03/17 14:13:57;;;;;;;1.33;0.90;;;;;;;;;;5064153;28;20037;-62
2021/03/17 14:16:24;;;;;;;3.35;1.05;;;;;;;;;;5062978;28;20071;-62
2021/03/17 14:18:51;;;;;;;1.80;0.82;;;;;;;;;;5064802;28;20053;-62
2021/03/17 14:21:17;;;;;;;2.38;0.65;;;;;;;;;;5065127;28;20517;-62
2021/03/17 14:23:44;;;;;;;4.72;1.08;;;;;;;;;;5064280;28;20056;-62
2021/03/17 14:26:10;;;;;;;3.33;0.80;;;;;;;;;;5064780;28;20067;-62
2021/03/17 14:28:36;;;;;;;1.58;0.75;;;;;;;;;;5062364;28;20118;-62
2021/03/17 14:31:02;;;;;;;0.80;0.68;;;;;;;;;;5060382;28;20459;-62
2021/03/17 14:33:29;;;;;;;3.70;1.23;;;;;;;;;;5063973;28;20068;-62
2021/03/17 14:35:56;;;;;;;1.70;0.85;;;;;;;;;;5065337;28;20512;-62
2021/03/17 14:38:23;;;;;;;2.85;0.88;;;;;;;;;;5061994;28;20048;-62
2021/03/17 14:40:49;;;;;;;1.45;0.80;;;;;;;;;;5061886;28;20041;-62
2021/03/17 14:43:15;;;;;;;1.15;0.60;;;;;;;;;;5063162;28;20098;-62
2021/03/17 14:45:42;;;;;;;3.38;1.10;;;;;;;;;;5063904;28;20045;-62
2021/03/17 14:48:08;;;;;;;2.25;0.70;;;;;;;;;;5065030;28;20049;-62
2021/03/17 14:50:36;;;;;;;1.35;0.70;;;;;;;;;;5061101;28;20049;-62
2021/03/17 14:53:03;;;;;;;3.40;0.95;;;;;;;;;;5062688;28;20219;-62
2021/03/17 14:55:29;;;;;;;3.30;0.70;;;;;;;;;;5064482;28;20445;-62
2021/03/17 14:57:56;;;;;;;1.92;0.77;;;;;;;;;;5064353;28;20101;-62
2021/03/17 15:00:23;;;;;;;4.13;0.70;;;;;;;;;;5062828;28;20033;-62